sensor_id;sensor_type;location;lat;lon;timestamp;pressure;altitude;pressure_sealevel;temperature;humidity
34983;BME280;21187;50.976;13.720;2023-05-23T00:02:36;97865.47;;;21.62;42.90
34983;BME280;21187;50.976;13.720;2023-05-23T00:07:39;97860.63;;;21.66;42.96
34983;BME280;21187;50.976;13.720;2023-05-23T00:12:41;97857.69;;;21.73;43.02
34983;BME280;21187;50.976;13.720;2023-05-23T00:17:43;97863.63;;;21.72;43.52
34983;BME280;21187;50.976;13.720;2023-05-23T00:22:47;97861.91;;;21.61;44.40
34983;BME280;21187;50.976;13.720;2023-05-23T00:27:50;97867.22;;;21.52;45.08
34983;BME280;21187;50.976;13.720;2023-05-23T00:32:52;97873.34;;;21.27;46.17
34983;BME280;21187;50.976;13.720;2023-05-23T00:37:55;97881.34;;;21.21;46.44
34983;BME280;21187;50.976;13.720;2023-05-23T00:42:57;97879.03;;;21.20;46.43
34983;BME280;21187;50.976;13.720;2023-05-23T00:47:59;97861.81;;;21.16;46.58
34983;BME280;21187;50.976;13.720;2023-05-23T00:53:02;97852.13;;;21.07;47.26
34983;BME280;21187;50.976;13.720;2023-05-23T00:58:05;97851.94;;;20.98;48.01
34983;BME280;21187;50.976;13.720;2023-05-23T01:03:07;97868.41;;;21.02;47.88
34983;BME280;21187;50.976;13.720;2023-05-23T01:08:09;97883.28;;;21.04;48.07
34983;BME280;21187;50.976;13.720;2023-05-23T01:24:02;97865.38;;;20.96;48.65
34983;BME280;21187;50.976;13.720;2023-05-23T01:29:13;97879.97;;;20.93;49.04
34983;BME280;21187;50.976;13.720;2023-05-23T01:34:18;97884.28;;;20.94;49.28
34983;BME280;21187;50.976;13.720;2023-05-23T01:39:22;97883.88;;;20.95;49.18
34983;BME280;21187;50.976;13.720;2023-05-23T01:44:24;97900.88;;;20.90;49.36
34983;BME280;21187;50.976;13.720;2023-05-23T01:49:29;97890.53;;;20.78;49.85
34983;BME280;21187;50.976;13.720;2023-05-23T01:54:32;97885.88;;;20.55;50.68
34983;BME280;21187;50.976;13.720;2023-05-23T01:59:36;97872.09;;;20.35;51.04
34983;BME280;21187;50.976;13.720;2023-05-23T02:04:39;97873.19;;;20.21;51.54
34983;BME280;21187;50.976;13.720;2023-05-23T02:09:41;97863.78;;;20.18;51.59
34983;BME280;21187;50.976;13.720;2023-05-23T02:14:43;97875.00;;;20.07;52.18
34983;BME280;21187;50.976;13.720;2023-05-23T02:19:45;97870.09;;;19.95;52.45
34983;BME280;21187;50.976;13.720;2023-05-23T02:24:48;97844.22;;;19.92;52.41
34983;BME280;21187;50.976;13.720;2023-05-23T02:29:50;97849.50;;;19.83;52.38
34983;BME280;21187;50.976;13.720;2023-05-23T02:34:52;97836.41;;;19.67;53.00
34983;BME280;21187;50.976;13.720;2023-05-23T02:39:57;97817.78;;;19.55;53.08
34983;BME280;21187;50.976;13.720;2023-05-23T02:44:59;97810.03;;;19.50;53.19
34983;BME280;21187;50.976;13.720;2023-05-23T02:50:02;97803.44;;;19.43;53.62
34983;BME280;21187;50.976;13.720;2023-05-23T02:55:05;97796.06;;;19.40;53.76
34983;BME280;21187;50.976;13.720;2023-05-23T03:00:13;97797.91;;;19.47;53.54
34983;BME280;21187;50.976;13.720;2023-05-23T03:05:21;97786.88;;;19.51;53.53
34983;BME280;21187;50.976;13.720;2023-05-23T03:10:23;97781.59;;;19.60;53.17
34983;BME280;21187;50.976;13.720;2023-05-23T03:15:25;97768.91;;;19.66;53.34
34983;BME280;21187;50.976;13.720;2023-05-23T03:20:26;97761.03;;;19.68;53.19
34983;BME280;21187;50.976;13.720;2023-05-23T03:25:29;97759.44;;;19.71;53.13
34983;BME280;21187;50.976;13.720;2023-05-23T03:30:31;97761.91;;;19.65;53.23
34983;BME280;21187;50.976;13.720;2023-05-23T03:35:33;97756.03;;;19.63;53.15
34983;BME280;21187;50.976;13.720;2023-05-23T03:40:34;97755.22;;;19.42;53.82
34983;BME280;21187;50.976;13.720;2023-05-23T03:45:36;97760.72;;;19.42;53.95
34983;BME280;21187;50.976;13.720;2023-05-23T03:50:46;97771.13;;;19.31;54.43
34983;BME280;21187;50.976;13.720;2023-05-23T03:55:48;97757.38;;;19.07;54.93
34983;BME280;21187;50.976;13.720;2023-05-23T04:00:50;97780.00;;;19.15;54.91
34983;BME280;21187;50.976;13.720;2023-05-23T04:05:55;97781.88;;;18.94;55.77
34983;BME280;21187;50.976;13.720;2023-05-23T04:11:01;97787.84;;;18.86;56.17
34983;BME280;21187;50.976;13.720;2023-05-23T04:16:08;97793.72;;;18.88;56.23
34983;BME280;21187;50.976;13.720;2023-05-23T04:21:10;97800.03;;;18.85;56.49
34983;BME280;21187;50.976;13.720;2023-05-23T04:26:21;97794.59;;;18.81;56.76
34983;BME280;21187;50.976;13.720;2023-05-23T04:31:26;97806.94;;;18.97;56.44
34983;BME280;21187;50.976;13.720;2023-05-23T04:36:29;97807.00;;;18.93;56.96
34983;BME280;21187;50.976;13.720;2023-05-23T04:41:31;97816.44;;;18.88;57.11
34983;BME280;21187;50.976;13.720;2023-05-23T04:46:59;97825.13;;;18.83;57.48
34983;BME280;21187;50.976;13.720;2023-05-23T04:52:22;97830.97;;;18.85;57.81
34983;BME280;21187;50.976;13.720;2023-05-23T04:57:25;97836.16;;;18.79;58.31
34983;BME280;21187;50.976;13.720;2023-05-23T05:02:28;97824.34;;;18.83;58.54
34983;BME280;21187;50.976;13.720;2023-05-23T05:07:36;97819.56;;;18.90;58.50
34983;BME280;21187;50.976;13.720;2023-05-23T05:12:40;97822.63;;;18.96;58.66
34983;BME280;21187;50.976;13.720;2023-05-23T05:17:43;97818.75;;;18.93;59.17
34983;BME280;21187;50.976;13.720;2023-05-23T05:22:57;97826.88;;;19.01;59.01
34983;BME280;21187;50.976;13.720;2023-05-23T05:28:02;97820.94;;;19.06;59.23
34983;BME280;21187;50.976;13.720;2023-05-23T05:33:14;97827.72;;;19.21;58.90
34983;BME280;21187;50.976;13.720;2023-05-23T05:38:16;97829.59;;;19.28;59.50
34983;BME280;21187;50.976;13.720;2023-05-23T05:43:19;97830.69;;;19.34;59.87
34983;BME280;21187;50.976;13.720;2023-05-23T05:48:21;97827.22;;;19.54;59.62
34983;BME280;21187;50.976;13.720;2023-05-23T05:53:26;97824.94;;;19.49;60.45
34983;BME280;21187;50.976;13.720;2023-05-23T05:58:28;97830.03;;;19.50;60.50
34983;BME280;21187;50.976;13.720;2023-05-23T06:03:34;97826.84;;;19.52;60.74
34983;BME280;21187;50.976;13.720;2023-05-23T06:08:36;97836.59;;;19.56;60.83
34983;BME280;21187;50.976;13.720;2023-05-23T06:13:38;97837.25;;;19.64;60.79
34983;BME280;21187;50.976;13.720;2023-05-23T06:18:40;97843.31;;;19.75;60.45
34983;BME280;21187;50.976;13.720;2023-05-23T06:23:42;97858.28;;;19.74;60.54
34983;BME280;21187;50.976;13.720;2023-05-23T06:28:44;97858.38;;;19.67;60.58
34983;BME280;21187;50.976;13.720;2023-05-23T06:33:46;97868.03;;;19.52;60.76
34983;BME280;21187;50.976;13.720;2023-05-23T06:38:48;97874.03;;;19.47;60.83
34983;BME280;21187;50.976;13.720;2023-05-23T06:43:50;97872.00;;;19.51;60.85
34983;BME280;21187;50.976;13.720;2023-05-23T06:48:57;97879.66;;;19.63;60.40
34983;BME280;21187;50.976;13.720;2023-05-23T06:54:15;97884.25;;;19.70;60.13
34983;BME280;21187;50.976;13.720;2023-05-23T06:59:18;97875.56;;;19.71;59.69
34983;BME280;21187;50.976;13.720;2023-05-23T07:04:20;97877.44;;;19.78;59.46
34983;BME280;21187;50.976;13.720;2023-05-23T07:09:22;97881.72;;;19.83;59.09
34983;BME280;21187;50.976;13.720;2023-05-23T07:14:29;97880.97;;;19.78;58.77
34983;BME280;21187;50.976;13.720;2023-05-23T07:19:31;97873.00;;;19.88;58.86
34983;BME280;21187;50.976;13.720;2023-05-23T07:24:35;97886.09;;;20.00;58.34
34983;BME280;21187;50.976;13.720;2023-05-23T07:29:38;97896.56;;;20.09;58.02
34983;BME280;21187;50.976;13.720;2023-05-23T07:34:42;97893.16;;;20.01;57.83
34983;BME280;21187;50.976;13.720;2023-05-23T07:39:44;97897.94;;;19.97;57.48
34983;BME280;21187;50.976;13.720;2023-05-23T07:44:46;97894.06;;;19.94;57.41
34983;BME280;21187;50.976;13.720;2023-05-23T07:49:49;97885.25;;;20.03;57.14
34983;BME280;21187;50.976;13.720;2023-05-23T07:54:54;97888.66;;;20.11;56.81
34983;BME280;21187;50.976;13.720;2023-05-23T07:59:56;97890.81;;;20.43;56.55
34983;BME280;21187;50.976;13.720;2023-05-23T08:05:00;97895.78;;;20.72;55.84
34983;BME280;21187;50.976;13.720;2023-05-23T08:10:03;97900.06;;;20.73;55.50
34983;BME280;21187;50.976;13.720;2023-05-23T08:15:06;97885.59;;;20.69;55.66
34983;BME280;21187;50.976;13.720;2023-05-23T08:20:18;97903.13;;;20.95;55.58
34983;BME280;21187;50.976;13.720;2023-05-23T08:25:20;97898.19;;;21.23;55.19
34983;BME280;21187;50.976;13.720;2023-05-23T08:30:23;97915.69;;;21.33;55.25
34983;BME280;21187;50.976;13.720;2023-05-23T08:35:26;97908.19;;;21.17;54.88
34983;BME280;21187;50.976;13.720;2023-05-23T08:40:30;97909.81;;;21.15;55.16
34983;BME280;21187;50.976;13.720;2023-05-23T08:45:43;97922.72;;;21.18;55.02
34983;BME280;21187;50.976;13.720;2023-05-23T08:50:47;97927.19;;;21.11;55.35
34983;BME280;21187;50.976;13.720;2023-05-23T08:55:54;97936.25;;;20.92;55.38
34983;BME280;21187;50.976;13.720;2023-05-23T09:01:05;97940.13;;;20.74;55.42
34983;BME280;21187;50.976;13.720;2023-05-23T09:06:08;97950.41;;;20.50;55.90
34983;BME280;21187;50.976;13.720;2023-05-23T09:11:12;97940.81;;;20.38;56.09
34983;BME280;21187;50.976;13.720;2023-05-23T09:16:18;97944.19;;;20.26;56.48
34983;BME280;21187;50.976;13.720;2023-05-23T09:21:30;97948.66;;;20.16;57.11
34983;BME280;21187;50.976;13.720;2023-05-23T09:26:38;97959.59;;;20.20;57.44
34983;BME280;21187;50.976;13.720;2023-05-23T09:31:40;97954.19;;;20.36;57.19
34983;BME280;21187;50.976;13.720;2023-05-23T09:36:45;97949.66;;;20.50;56.73
34983;BME280;21187;50.976;13.720;2023-05-23T09:41:49;97962.69;;;20.45;56.79
34983;BME280;21187;50.976;13.720;2023-05-23T09:46:51;97964.66;;;20.45;56.89
34983;BME280;21187;50.976;13.720;2023-05-23T09:51:59;97970.69;;;20.36;56.94
34983;BME280;21187;50.976;13.720;2023-05-23T09:57:02;97976.94;;;20.17;56.94
34983;BME280;21187;50.976;13.720;2023-05-23T10:02:11;97973.34;;;19.96;57.33
34983;BME280;21187;50.976;13.720;2023-05-23T10:07:18;97978.84;;;19.96;57.10
34983;BME280;21187;50.976;13.720;2023-05-23T10:23:18;97989.78;;;20.23;55.46
34983;BME280;21187;50.976;13.720;2023-05-23T10:28:21;97990.78;;;20.33;54.83
34983;BME280;21187;50.976;13.720;2023-05-23T10:33:26;97994.47;;;20.47;54.01
34983;BME280;21187;50.976;13.720;2023-05-23T10:49:07;98005.38;;;20.06;54.70
34983;BME280;21187;50.976;13.720;2023-05-23T10:54:10;98020.06;;;19.96;54.54
34983;BME280;21187;50.976;13.720;2023-05-23T10:59:21;98024.41;;;19.66;55.27
34983;BME280;21187;50.976;13.720;2023-05-23T11:04:24;98021.81;;;19.55;55.45
34983;BME280;21187;50.976;13.720;2023-05-23T11:09:28;98021.03;;;19.55;55.32
34983;BME280;21187;50.976;13.720;2023-05-23T11:19:35;98020.31;;;20.05;53.80
34983;BME280;21187;50.976;13.720;2023-05-23T11:29:57;98018.63;;;20.59;52.18
34983;BME280;21187;50.976;13.720;2023-05-23T11:35:01;98014.53;;;20.71;51.39
34983;BME280;21187;50.976;13.720;2023-05-23T11:40:25;98017.56;;;20.53;51.48
34983;BME280;21187;50.976;13.720;2023-05-23T11:45:29;98018.19;;;20.40;51.76
34983;BME280;21187;50.976;13.720;2023-05-23T11:50:33;98016.81;;;20.28;52.24
34983;BME280;21187;50.976;13.720;2023-05-23T11:55:39;98012.69;;;20.40;52.03
34983;BME280;21187;50.976;13.720;2023-05-23T12:00:43;98011.13;;;20.39;51.71
34983;BME280;21187;50.976;13.720;2023-05-23T12:05:45;98017.94;;;20.55;51.31
34983;BME280;21187;50.976;13.720;2023-05-23T12:10:57;98002.84;;;20.63;51.30
34983;BME280;21187;50.976;13.720;2023-05-23T12:16:01;98008.81;;;20.82;50.73
34983;BME280;21187;50.976;13.720;2023-05-23T12:21:05;98006.13;;;20.98;50.39
34983;BME280;21187;50.976;13.720;2023-05-23T12:26:09;98018.69;;;20.99;50.38
34983;BME280;21187;50.976;13.720;2023-05-23T12:31:15;98010.63;;;21.08;49.94
34983;BME280;21187;50.976;13.720;2023-05-23T12:36:22;98014.09;;;20.92;50.17
34983;BME280;21187;50.976;13.720;2023-05-23T12:41:25;98007.53;;;21.06;50.39
34983;BME280;21187;50.976;13.720;2023-05-23T12:46:27;98017.25;;;21.31;50.08
34983;BME280;21187;50.976;13.720;2023-05-23T12:51:29;98019.31;;;21.27;49.57
34983;BME280;21187;50.976;13.720;2023-05-23T12:56:31;98023.06;;;21.17;49.94
34983;BME280;21187;50.976;13.720;2023-05-23T13:01:35;98019.91;;;21.18;49.88
34983;BME280;21187;50.976;13.720;2023-05-23T13:06:37;98034.34;;;21.02;50.09
34983;BME280;21187;50.976;13.720;2023-05-23T13:11:40;98023.69;;;20.84;50.45
34983;BME280;21187;50.976;13.720;2023-05-23T13:16:42;98032.50;;;20.75;51.09
34983;BME280;21187;50.976;13.720;2023-05-23T13:21:45;98031.91;;;20.88;50.90
34983;BME280;21187;50.976;13.720;2023-05-23T13:26:50;98039.44;;;20.84;50.61
34983;BME280;21187;50.976;13.720;2023-05-23T13:31:52;98048.25;;;20.75;50.67
34983;BME280;21187;50.976;13.720;2023-05-23T13:36:54;98046.97;;;20.56;50.97
34983;BME280;21187;50.976;13.720;2023-05-23T13:41:56;98050.19;;;20.51;51.17
34983;BME280;21187;50.976;13.720;2023-05-23T13:47:12;98052.38;;;20.39;51.58
34983;BME280;21187;50.976;13.720;2023-05-23T13:52:14;98075.81;;;19.97;53.03
34983;BME280;21187;50.976;13.720;2023-05-23T13:57:16;98080.56;;;19.65;53.86
34983;BME280;21187;50.976;13.720;2023-05-23T14:02:18;98086.28;;;19.47;54.39
34983;BME280;21187;50.976;13.720;2023-05-23T14:07:20;98088.22;;;19.16;55.58
34983;BME280;21187;50.976;13.720;2023-05-23T14:12:22;98087.94;;;19.03;56.28
34983;BME280;21187;50.976;13.720;2023-05-23T14:17:24;98088.06;;;18.88;57.32
34983;BME280;21187;50.976;13.720;2023-05-23T14:22:26;98096.44;;;18.74;58.11
34983;BME280;21187;50.976;13.720;2023-05-23T14:27:28;98094.16;;;18.69;58.49
34983;BME280;21187;50.976;13.720;2023-05-23T14:32:30;98093.03;;;18.62;58.85
34983;BME280;21187;50.976;13.720;2023-05-23T14:37:36;98097.34;;;18.60;58.74
34983;BME280;21187;50.976;13.720;2023-05-23T14:42:38;98102.84;;;18.60;58.78
34983;BME280;21187;50.976;13.720;2023-05-23T14:47:40;98098.19;;;18.57;58.77
34983;BME280;21187;50.976;13.720;2023-05-23T14:52:42;98099.06;;;18.43;59.04
34983;BME280;21187;50.976;13.720;2023-05-23T14:57:44;98112.38;;;18.44;59.04
34983;BME280;21187;50.976;13.720;2023-05-23T15:02:46;98114.78;;;18.35;59.35
34983;BME280;21187;50.976;13.720;2023-05-23T15:07:48;98114.03;;;18.31;59.45
34983;BME280;21187;50.976;13.720;2023-05-23T15:12:50;98118.75;;;18.31;59.44
34983;BME280;21187;50.976;13.720;2023-05-23T15:17:52;98111.38;;;18.20;59.75
34983;BME280;21187;50.976;13.720;2023-05-23T15:22:54;98109.47;;;18.13;59.74
34983;BME280;21187;50.976;13.720;2023-05-23T15:27:56;98110.25;;;18.14;59.73
34983;BME280;21187;50.976;13.720;2023-05-23T15:32:59;98118.81;;;18.20;59.20
34983;BME280;21187;50.976;13.720;2023-05-23T15:38:02;98121.88;;;18.29;58.69
34983;BME280;21187;50.976;13.720;2023-05-23T15:43:04;98115.28;;;18.23;58.50
34983;BME280;21187;50.976;13.720;2023-05-23T15:48:06;98102.78;;;18.18;58.36
34983;BME280;21187;50.976;13.720;2023-05-23T15:53:08;98126.34;;;18.08;58.11
34983;BME280;21187;50.976;13.720;2023-05-23T15:58:10;98127.19;;;17.98;57.99
34983;BME280;21187;50.976;13.720;2023-05-23T16:03:12;98128.00;;;17.95;57.75
34983;BME280;21187;50.976;13.720;2023-05-23T16:08:14;98131.19;;;17.75;58.19
34983;BME280;21187;50.976;13.720;2023-05-23T16:13:16;98138.59;;;17.78;57.64
34983;BME280;21187;50.976;13.720;2023-05-23T16:18:18;98145.31;;;17.63;57.99
34983;BME280;21187;50.976;13.720;2023-05-23T16:23:22;98141.13;;;17.26;58.87
34983;BME280;21187;50.976;13.720;2023-05-23T16:28:25;98139.63;;;17.07;59.54
34983;BME280;21187;50.976;13.720;2023-05-23T16:33:28;98141.16;;;17.11;59.34
34983;BME280;21187;50.976;13.720;2023-05-23T16:38:29;98138.06;;;17.02;59.75
34983;BME280;21187;50.976;13.720;2023-05-23T16:43:32;98149.00;;;16.88;59.95
34983;BME280;21187;50.976;13.720;2023-05-23T16:48:35;98149.00;;;16.73;60.60
34983;BME280;21187;50.976;13.720;2023-05-23T16:53:37;98148.22;;;16.73;60.79
34983;BME280;21187;50.976;13.720;2023-05-23T16:58:38;98139.63;;;16.74;60.50
34983;BME280;21187;50.976;13.720;2023-05-23T17:03:40;98131.03;;;16.61;60.78
34983;BME280;21187;50.976;13.720;2023-05-23T17:08:43;98152.91;;;16.58;60.98
34983;BME280;21187;50.976;13.720;2023-05-23T17:13:45;98172.41;;;16.45;61.01
34983;BME280;21187;50.976;13.720;2023-05-23T17:18:47;98180.59;;;16.24;61.63
34983;BME280;21187;50.976;13.720;2023-05-23T17:23:49;98180.13;;;15.93;61.90
34983;BME280;21187;50.976;13.720;2023-05-23T17:28:51;98182.47;;;15.94;62.02
34983;BME280;21187;50.976;13.720;2023-05-23T17:33:53;98190.28;;;16.03;61.42
34983;BME280;21187;50.976;13.720;2023-05-23T17:38:55;98197.31;;;16.04;61.14
34983;BME280;21187;50.976;13.720;2023-05-23T17:43:57;98211.31;;;15.88;61.77
34983;BME280;21187;50.976;13.720;2023-05-23T17:48:59;98214.38;;;15.79;61.84
34983;BME280;21187;50.976;13.720;2023-05-23T17:54:01;98224.50;;;15.75;61.82
34983;BME280;21187;50.976;13.720;2023-05-23T17:59:04;98225.22;;;15.61;61.94
34983;BME280;21187;50.976;13.720;2023-05-23T18:04:07;98231.38;;;15.47;62.03
34983;BME280;21187;50.976;13.720;2023-05-23T18:09:09;98226.63;;;15.37;62.18
34983;BME280;21187;50.976;13.720;2023-05-23T18:14:11;98239.16;;;15.45;61.70
34983;BME280;21187;50.976;13.720;2023-05-23T18:19:13;98246.94;;;15.43;61.66
34983;BME280;21187;50.976;13.720;2023-05-23T18:24:15;98251.91;;;15.27;61.65
34983;BME280;21187;50.976;13.720;2023-05-23T18:29:17;98259.25;;;15.23;61.72
34983;BME280;21187;50.976;13.720;2023-05-23T18:34:20;98267.06;;;15.21;61.92
34983;BME280;21187;50.976;13.720;2023-05-23T18:39:22;98276.22;;;14.98;62.05
34983;BME280;21187;50.976;13.720;2023-05-23T18:44:24;98280.75;;;14.79;62.31
34983;BME280;21187;50.976;13.720;2023-05-23T18:49:26;98276.84;;;14.80;62.57
34983;BME280;21187;50.976;13.720;2023-05-23T18:54:28;98289.97;;;14.71;62.44
34983;BME280;21187;50.976;13.720;2023-05-23T18:59:30;98303.66;;;14.75;62.38
34983;BME280;21187;50.976;13.720;2023-05-23T19:04:32;98314.59;;;14.78;62.69
34983;BME280;21187;50.976;13.720;2023-05-23T19:09:34;98323.50;;;14.75;62.36
34983;BME280;21187;50.976;13.720;2023-05-23T19:14:36;98330.47;;;14.69;62.33
34983;BME280;21187;50.976;13.720;2023-05-23T19:19:38;98338.13;;;14.60;62.96
34983;BME280;21187;50.976;13.720;2023-05-23T19:24:40;98345.63;;;14.67;62.53
34983;BME280;21187;50.976;13.720;2023-05-23T19:29:43;98366.25;;;14.64;62.61
34983;BME280;21187;50.976;13.720;2023-05-23T19:34:45;98387.19;;;14.60;62.42
34983;BME280;21187;50.976;13.720;2023-05-23T19:39:47;98376.41;;;14.67;62.41
34983;BME280;21187;50.976;13.720;2023-05-23T19:44:49;98380.75;;;14.75;61.83
34983;BME280;21187;50.976;13.720;2023-05-23T19:49:51;98379.38;;;14.89;61.32
34983;BME280;21187;50.976;13.720;2023-05-23T19:54:53;98393.66;;;14.78;61.75
34983;BME280;21187;50.976;13.720;2023-05-23T19:59:55;98393.56;;;14.71;61.66
34983;BME280;21187;50.976;13.720;2023-05-23T20:04:57;98409.94;;;14.71;61.43
34983;BME280;21187;50.976;13.720;2023-05-23T20:09:59;98413.09;;;14.73;61.27
34983;BME280;21187;50.976;13.720;2023-05-23T20:15:02;98421.59;;;14.68;61.04
34983;BME280;21187;50.976;13.720;2023-05-23T20:20:04;98424.75;;;14.70;60.91
34983;BME280;21187;50.976;13.720;2023-05-23T20:25:07;98425.47;;;14.67;61.07
34983;BME280;21187;50.976;13.720;2023-05-23T20:30:09;98433.59;;;14.63;61.01
34983;BME280;21187;50.976;13.720;2023-05-23T20:35:12;98444.81;;;14.58;61.06
34983;BME280;21187;50.976;13.720;2023-05-23T20:40:13;98443.94;;;14.51;61.38
34983;BME280;21187;50.976;13.720;2023-05-23T20:45:16;98446.78;;;14.31;61.94
34983;BME280;21187;50.976;13.720;2023-05-23T20:50:18;98456.00;;;14.23;62.02
34983;BME280;21187;50.976;13.720;2023-05-23T20:55:20;98453.69;;;14.25;62.01
34983;BME280;21187;50.976;13.720;2023-05-23T21:00:22;98472.97;;;14.12;62.09
34983;BME280;21187;50.976;13.720;2023-05-23T21:05:25;98470.94;;;14.09;62.30
34983;BME280;21187;50.976;13.720;2023-05-23T21:10:27;98481.81;;;14.06;61.99
34983;BME280;21187;50.976;13.720;2023-05-23T21:15:29;98484.41;;;13.98;62.40
34983;BME280;21187;50.976;13.720;2023-05-23T21:20:31;98482.53;;;14.03;62.30
34983;BME280;21187;50.976;13.720;2023-05-23T21:25:33;98487.72;;;14.11;61.75
34983;BME280;21187;50.976;13.720;2023-05-23T21:30:35;98488.78;;;14.03;61.94
34983;BME280;21187;50.976;13.720;2023-05-23T21:35:37;98490.38;;;14.08;61.72
34983;BME280;21187;50.976;13.720;2023-05-23T21:40:39;98499.38;;;14.08;61.29
34983;BME280;21187;50.976;13.720;2023-05-23T21:45:42;98491.59;;;14.10;61.40
34983;BME280;21187;50.976;13.720;2023-05-23T21:50:44;98487.78;;;14.15;61.17
34983;BME280;21187;50.976;13.720;2023-05-23T21:55:45;98495.44;;;14.06;60.79
34983;BME280;21187;50.976;13.720;2023-05-23T22:00:48;98493.63;;;13.90;60.90
34983;BME280;21187;50.976;13.720;2023-05-23T22:05:49;98489.81;;;13.95;60.69
34983;BME280;21187;50.976;13.720;2023-05-23T22:10:51;98489.06;;;13.98;60.94
34983;BME280;21187;50.976;13.720;2023-05-23T22:15:53;98490.00;;;14.09;60.59
34983;BME280;21187;50.976;13.720;2023-05-23T22:20:55;98493.16;;;14.11;60.44
34983;BME280;21187;50.976;13.720;2023-05-23T22:25:57;98492.03;;;14.12;60.27
34983;BME280;21187;50.976;13.720;2023-05-23T22:30:59;98488.47;;;14.08;60.12
34983;BME280;21187;50.976;13.720;2023-05-23T22:36:03;98486.59;;;13.89;60.41
34983;BME280;21187;50.976;13.720;2023-05-23T22:41:05;98487.25;;;13.82;60.73
34983;BME280;21187;50.976;13.720;2023-05-23T22:46:07;98491.19;;;13.85;60.78
34983;BME280;21187;50.976;13.720;2023-05-23T22:51:09;98487.31;;;13.86;60.86
34983;BME280;21187;50.976;13.720;2023-05-23T22:56:13;98478.69;;;13.80;60.65
34983;BME280;21187;50.976;13.720;2023-05-23T23:01:16;98465.38;;;13.75;60.92
34983;BME280;21187;50.976;13.720;2023-05-23T23:06:18;98459.13;;;13.75;61.08
34983;BME280;21187;50.976;13.720;2023-05-23T23:11:21;98454.44;;;13.72;60.88
34983;BME280;21187;50.976;13.720;2023-05-23T23:16:23;98465.25;;;13.68;60.46
34983;BME280;21187;50.976;13.720;2023-05-23T23:21:26;98467.13;;;13.64;60.32
34983;BME280;21187;50.976;13.720;2023-05-23T23:26:28;98468.25;;;13.63;59.96
34983;BME280;21187;50.976;13.720;2023-05-23T23:31:30;98474.56;;;13.67;59.79
34983;BME280;21187;50.976;13.720;2023-05-23T23:36:32;98480.06;;;13.71;59.35
34983;BME280;21187;50.976;13.720;2023-05-23T23:41:34;98479.16;;;13.63;58.84
34983;BME280;21187;50.976;13.720;2023-05-23T23:46:36;98475.28;;;13.64;58.40
34983;BME280;21187;50.976;13.720;2023-05-23T23:51:38;98465.13;;;13.61;57.87
34983;BME280;21187;50.976;13.720;2023-05-23T23:56:40;98478.50;;;13.46;57.74
